Time;durP1;ratioP1;P1;durP2;ratioP2;P2;SDS_P1;SDS_P2;PMS_P1;PMS_P2;Temp;Humidity;BMP_temperature;BMP_pressure;BME280_temperature;BME280_humidity;BME280_pressure;Samples;Min_cycle;Max_cycle;Signal;HPM_P1;HPM_P2
2021/05/16 00:01:31;;;;;;;0.85;0.30;;;;;;;31.89;19.72;97183.44;5090770;28;20032;-87
2021/05/16 00:03:57;;;;;;;0.73;0.40;;;;;;;32.17;19.91;97194.94;5094674;28;20115;-87
2021/05/16 00:06:24;;;;;;;0.47;0.40;;;;;;;32.20;19.66;97202.44;5093497;28;20028;-87
2021/05/16 00:08:50;;;;;;;0.40;0.40;;;;;;;32.42;19.65;97196.81;5094526;28;20511;-87
2021/05/16 00:11:16;;;;;;;0.98;0.40;;;;;;;32.18;20.17;97192.88;5094982;28;20057;-87
2021/05/16 00:13:42;;;;;;;0.68;0.30;;;;;;;32.00;20.21;97194.06;5094779;28;20057;-86
2021/05/16 00:16:08;;;;;;;0.52;0.30;;;;;;;31.81;20.46;97196.53;5093007;28;20032;-87
2021/05/16 00:18:34;;;;;;;1.70;0.30;;;;;;;31.92;20.22;97190.16;5094136;28;20032;-87
2021/05/16 00:21:01;;;;;;;0.35;0.35;;;;;;;31.92;20.43;97188.09;5093318;28;20043;-87
2021/05/16 00:23:27;;;;;;;1.33;0.40;;;;;;;31.69;20.85;97194.16;5094577;28;20036;-87
2021/05/16 00:25:53;;;;;;;0.70;0.30;;;;;;;31.87;20.11;97191.69;5094458;28;20032;-87
2021/05/16 00:28:19;;;;;;;0.63;0.32;;;;;;;32.05;20.05;97184.81;5093527;28;20059;-87
2021/05/16 00:30:45;;;;;;;1.58;0.30;;;;;;;31.86;20.43;97183.66;5095323;28;20548;-87
2021/05/16 00:33:11;;;;;;;0.40;0.40;;;;;;;31.81;20.51;97182.34;5093546;28;20032;-87
2021/05/16 00:35:37;;;;;;;0.52;0.30;;;;;;;32.12;20.06;97181.47;5095417;28;20108;-87
2021/05/16 00:38:04;;;;;;;0.65;0.30;;;;;;;32.35;19.65;97185.94;5092381;28;20025;-87
2021/05/16 00:40:33;;;;;;;0.20;0.20;;;;;;;32.29;19.87;97184.38;5093841;28;20028;-87
2021/05/16 00:42:59;;;;;;;0.70;0.35;;;;;;;32.18;20.01;97179.47;5094801;28;20491;-87
2021/05/16 00:45:27;;;;;;;0.70;0.30;;;;;;;32.04;20.01;97177.59;5094117;28;20044;-87
2021/05/16 00:47:59;;;;;;;0.65;0.25;;;;;;;32.07;20.12;97170.88;5094503;28;20028;-87
2021/05/16 00:50:47;;;;;;;0.32;0.32;;;;;;;32.28;19.78;97177.91;5093076;28;20036;-86
2021/05/16 00:53:18;;;;;;;0.52;0.30;;;;;;;31.82;20.68;97164.03;5090714;28;20032;-86
2021/05/16 00:55:45;;;;;;;0.40;0.30;;;;;;;31.34;21.20;97163.22;5094201;28;20024;-86
2021/05/16 00:58:11;;;;;;;0.30;0.30;;;;;;;31.18;21.37;97156.13;5093570;28;20421;-86
2021/05/16 01:00:40;;;;;;;1.27;0.35;;;;;;;30.96;21.62;97147.47;5087921;28;20391;-87
2021/05/16 01:03:07;;;;;;;0.50;0.50;;;;;;;30.51;21.97;97145.47;5093396;28;20062;-87
2021/05/16 01:05:34;;;;;;;0.50;0.50;;;;;;;30.29;22.11;97136.75;5093275;28;20074;-87
2021/05/16 01:08:01;;;;;;;0.45;0.40;;;;;;;30.66;22.05;97138.44;5093775;28;20040;-87
2021/05/16 01:10:27;;;;;;;0.47;0.47;;;;;;;30.90;21.44;97143.03;5092112;28;20042;-87
2021/05/16 01:12:55;;;;;;;0.28;0.28;;;;;;;31.16;20.89;97138.06;5094397;28;20060;-88
2021/05/16 01:15:24;;;;;;;1.50;0.45;;;;;;;31.21;20.67;97135.28;5093788;28;20081;-87
2021/05/16 01:17:50;;;;;;;0.30;0.28;;;;;;;31.42;20.38;97136.72;5092599;28;20043;-88
2021/05/16 01:20:18;;;;;;;0.50;0.30;;;;;;;31.52;20.20;97140.13;5092125;28;20418;-88
2021/05/16 01:22:52;;;;;;;0.47;0.30;;;;;;;31.56;20.32;97137.84;5092970;28;20111;-87
2021/05/16 01:25:18;;;;;;;0.30;0.30;;;;;;;31.47;20.22;97154.28;5093729;28;20360;-88
2021/05/16 01:27:46;;;;;;;0.50;0.30;;;;;;;31.38;20.64;97152.41;5093663;28;20066;-87
2021/05/16 01:30:13;;;;;;;1.30;0.40;;;;;;;31.25;20.90;97152.06;5093038;28;20081;-87
2021/05/16 01:32:39;;;;;;;0.50;0.40;;;;;;;31.50;20.36;97141.94;5092755;28;20476;-88
2021/05/16 01:35:07;;;;;;;0.20;0.20;;;;;;;31.89;19.75;97152.19;5092010;28;20081;-88
2021/05/16 01:37:33;;;;;;;0.30;0.30;;;;;;;31.81;20.13;97147.53;5093220;28;20483;-87
2021/05/16 01:39:59;;;;;;;0.65;0.30;;;;;;;31.93;19.78;97149.88;5093331;28;20107;-88
2021/05/16 01:42:26;;;;;;;0.57;0.30;;;;;;;32.11;19.24;97148.69;5093270;28;20484;-88
2021/05/16 01:45:01;;;;;;;0.93;0.40;;;;;;;32.17;19.34;97146.66;5093161;28;20069;-88
2021/05/16 01:47:28;;;;;;;0.40;0.20;;;;;;;31.82;19.83;97144.16;5092836;28;20027;-87
2021/05/16 01:50:02;;;;;;;0.20;0.20;;;;;;;31.65;20.27;97146.13;5092059;28;20039;-88
2021/05/16 01:52:30;;;;;;;0.47;0.32;;;;;;;31.17;20.36;97146.09;5092042;28;20028;-88
2021/05/16 01:54:57;;;;;;;0.52;0.52;;;;;;;31.31;20.63;97142.31;5093182;28;20352;-88
2021/05/16 01:57:24;;;;;;;0.50;0.20;;;;;;;31.64;19.84;97135.31;5092961;28;20030;-88
2021/05/16 01:59:51;;;;;;;0.20;0.10;;;;;;;32.00;19.60;97142.97;5092603;28;20111;-88
2021/05/16 02:02:17;;;;;;;0.22;0.22;;;;;;;32.12;19.22;97144.56;5088991;28;20055;-87
2021/05/16 02:04:45;;;;;;;0.30;0.20;;;;;;;32.28;19.39;97151.59;5088667;28;20475;-88
2021/05/16 02:07:11;;;;;;;0.30;0.30;;;;;;;32.42;19.10;97150.56;5092444;28;20043;-88
2021/05/16 02:09:39;;;;;;;0.10;0.10;;;;;;;32.31;18.93;97142.03;5089375;28;20024;-89
2021/05/16 02:12:06;;;;;;;0.28;0.20;;;;;;;31.80;19.78;97143.13;5091382;28;20044;-88
2021/05/16 02:14:33;;;;;;;0.30;0.20;;;;;;;31.46;20.14;97138.56;5092573;28;20024;-88
2021/05/16 02:17:02;;;;;;;0.40;0.40;;;;;;;31.36;20.03;97143.63;5092159;28;20559;-88
2021/05/16 02:19:29;;;;;;;0.32;0.20;;;;;;;31.49;20.16;97143.19;5092108;28;20029;-88
2021/05/16 02:21:55;;;;;;;0.30;0.28;;;;;;;31.78;19.58;97143.63;5093143;28;20036;-88
2021/05/16 02:24:22;;;;;;;0.38;0.30;;;;;;;31.82;19.77;97141.31;5092249;28;20068;-89
2021/05/16 02:26:49;;;;;;;0.40;0.30;;;;;;;31.39;20.55;97136.94;5092087;28;20461;-88
2021/05/16 02:29:15;;;;;;;0.30;0.30;;;;;;;30.97;20.84;97134.06;5092237;28;20032;-88
2021/05/16 02:31:43;;;;;;;0.43;0.30;;;;;;;30.80;21.34;97133.13;5091549;28;20028;-88
2021/05/16 02:34:09;;;;;;;0.30;0.30;;;;;;;31.06;20.85;97136.72;5085111;28;20028;-88
2021/05/16 02:36:35;;;;;;;0.68;0.20;;;;;;;31.57;20.29;97132.94;5091789;28;20047;-88
2021/05/16 02:39:04;;;;;;;0.45;0.30;;;;;;;31.49;20.40;97134.69;5091390;28;20032;-88
2021/05/16 02:41:30;;;;;;;0.30;0.20;;;;;;;31.35;20.67;97136.38;5090103;28;20390;-88
2021/05/16 02:43:56;;;;;;;0.20;0.20;;;;;;;31.72;20.02;97136.34;5090085;28;20089;-88
2021/05/16 02:46:22;;;;;;;0.80;0.20;;;;;;;31.70;20.28;97131.19;5090958;28;20366;-88
2021/05/16 02:48:48;;;;;;;0.80;0.30;;;;;;;31.56;20.27;97123.66;5092392;28;20115;-87
2021/05/16 02:51:16;;;;;;;0.22;0.22;;;;;;;31.57;20.56;97125.22;5091299;28;20028;-86
2021/05/16 02:53:42;;;;;;;0.28;0.28;;;;;;;31.73;20.28;97138.72;5090227;28;20032;-87
2021/05/16 02:56:08;;;;;;;0.57;0.20;;;;;;;31.82;20.11;97135.66;5091902;28;20020;-88
2021/05/16 02:58:34;;;;;;;0.30;0.30;;;;;;;32.11;19.97;97140.19;5090535;28;20060;-87
2021/05/16 03:01:00;;;;;;;0.47;0.35;;;;;;;32.39;19.52;97134.56;5091282;28;20028;-87
2021/05/16 03:03:26;;;;;;;0.28;0.28;;;;;;;32.70;19.17;97129.47;5088320;28;20036;-87
2021/05/16 03:05:52;;;;;;;0.28;0.28;;;;;;;32.56;19.65;97132.53;5085768;28;20111;-88
2021/05/16 03:08:18;;;;;;;0.20;0.20;;;;;;;32.41;19.56;97140.50;5088334;28;20043;-88
2021/05/16 03:10:45;;;;;;;0.15;0.13;;;;;;;32.16;19.83;97130.88;5091570;28;20029;-87
2021/05/16 03:13:11;;;;;;;0.40;0.20;;;;;;;31.97;20.23;97133.41;5089045;28;20047;-87
2021/05/16 03:15:37;;;;;;;0.45;0.22;;;;;;;31.52;20.96;97125.94;5091636;28;20390;-87
2021/05/16 03:18:04;;;;;;;0.30;0.30;;;;;;;31.84;20.32;97127.38;5089745;28;20036;-88
2021/05/16 03:20:30;;;;;;;1.02;0.20;;;;;;;32.11;19.87;97133.72;5090356;28;20158;-87
2021/05/16 03:22:56;;;;;;;0.20;0.20;;;;;;;32.32;19.71;97126.53;5090645;28;20058;-88
2021/05/16 03:25:22;;;;;;;0.22;0.20;;;;;;;32.71;19.19;97128.19;5091508;28;20028;-87
2021/05/16 03:27:49;;;;;;;0.10;0.10;;;;;;;33.05;19.08;97128.97;5090357;28;20032;-87
2021/05/16 03:30:16;;;;;;;0.35;0.30;;;;;;;33.28;18.51;97136.19;5088991;28;20648;-87
2021/05/16 03:32:42;;;;;;;0.40;0.30;;;;;;;33.39;18.56;97130.50;5088098;28;20107;-88
2021/05/16 03:35:11;;;;;;;0.30;0.22;;;;;;;33.49;18.29;97130.22;5089369;28;20024;-88
2021/05/16 03:37:37;;;;;;;0.20;0.20;;;;;;;33.62;18.54;97139.00;5092681;28;20043;-87
2021/05/16 03:40:04;;;;;;;0.47;0.30;;;;;;;33.64;18.26;97128.63;5094083;28;20413;-87
2021/05/16 03:42:31;;;;;;;0.40;0.30;;;;;;;33.33;18.77;97129.72;5088961;28;20428;-87
2021/05/16 03:44:57;;;;;;;1.20;0.40;;;;;;;32.60;19.65;97127.41;5090875;28;20062;-87
2021/05/16 03:47:23;;;;;;;0.30;0.30;;;;;;;32.39;19.65;97128.88;5092414;28;20036;-87
2021/05/16 03:49:50;;;;;;;0.38;0.22;;;;;;;32.82;19.40;97127.41;5095251;28;20024;-88
2021/05/16 03:52:19;;;;;;;0.20;0.20;;;;;;;33.14;18.87;97133.63;5093041;28;20032;-87
2021/05/16 03:54:46;;;;;;;0.30;0.30;;;;;;;33.36;18.57;97131.53;5091976;28;20520;-88
2021/05/16 03:57:14;;;;;;;0.43;0.28;;;;;;;33.36;19.06;97131.53;5094177;28;20044;-87
2021/05/16 03:59:40;;;;;;;1.77;0.30;;;;;;;33.03;19.11;97133.63;5094181;28;20476;-87
2021/05/16 04:02:06;;;;;;;0.85;0.20;;;;;;;33.02;19.34;97132.88;5092021;28;20510;-87
2021/05/16 04:04:32;;;;;;;0.32;0.32;;;;;;;32.73;19.83;97142.66;5093822;28;20024;-87
2021/05/16 04:06:58;;;;;;;0.30;0.30;;;;;;;32.27;20.39;97144.34;5091676;28;20136;-87
2021/05/16 04:09:24;;;;;;;0.52;0.40;;;;;;;31.69;21.10;97140.22;5093626;28;20550;-87
2021/05/16 04:11:50;;;;;;;0.90;0.50;;;;;;;31.06;21.94;97134.66;5095822;28;20036;-87
2021/05/16 04:14:17;;;;;;;1.13;0.40;;;;;;;31.05;21.83;97138.00;5094194;28;20173;-87
2021/05/16 04:16:44;;;;;;;0.30;0.30;;;;;;;31.42;21.62;97133.88;5093547;28;20123;-87
2021/05/16 04:19:10;;;;;;;0.77;0.40;;;;;;;31.36;21.42;97138.75;5095196;28;20032;-87
2021/05/16 04:21:36;;;;;;;0.45;0.30;;;;;;;31.70;21.18;97133.25;5094217;28;20506;-87
2021/05/16 04:24:02;;;;;;;0.30;0.30;;;;;;;31.46;21.82;97141.41;5094877;28;20483;-87
2021/05/16 04:26:28;;;;;;;0.40;0.40;;;;;;;31.48;21.84;97130.31;5092020;28;20059;-87
2021/05/16 04:28:54;;;;;;;0.45;0.45;;;;;;;31.48;21.51;97136.78;5094191;28;20053;-87
2021/05/16 04:31:20;;;;;;;0.47;0.30;;;;;;;31.30;22.12;97131.44;5089915;28;20075;-87
2021/05/16 04:33:46;;;;;;;0.20;0.20;;;;;;;31.08;21.86;97122.81;5093389;28;20401;-87
2021/05/16 04:36:12;;;;;;;0.35;0.30;;;;;;;30.87;22.62;97124.94;5089536;28;20040;-88
2021/05/16 04:38:39;;;;;;;2.10;0.40;;;;;;;30.54;22.63;97118.97;5093204;28;20441;-88
2021/05/16 04:41:05;;;;;;;0.50;0.30;;;;;;;30.75;22.50;97120.47;5091571;28;20055;-87
2021/05/16 04:43:31;;;;;;;0.47;0.40;;;;;;;30.58;22.35;97111.03;5094049;28;20441;-87
2021/05/16 04:45:57;;;;;;;1.55;0.30;;;;;;;31.12;21.97;97117.66;5091588;28;20413;-88
2021/05/16 04:48:23;;;;;;;0.50;0.30;;;;;;;31.73;21.38;97116.00;5094284;28;20054;-88
2021/05/16 04:50:49;;;;;;;0.30;0.30;;;;;;;32.06;21.15;97115.38;5095338;28;20036;-88
2021/05/16 04:53:15;;;;;;;0.80;0.32;;;;;;;32.26;21.02;97117.22;5088789;28;20033;-88
2021/05/16 04:55:41;;;;;;;0.38;0.20;;;;;;;32.64;20.80;97125.84;5092821;28;20467;-88
2021/05/16 04:58:10;;;;;;;0.30;0.20;;;;;;;33.03;20.52;97122.25;5090541;28;21936;-91
2021/05/16 05:00:36;;;;;;;0.73;0.43;;;;;;;33.40;19.58;97126.34;5092740;28;20035;-89
2021/05/16 05:03:03;;;;;;;0.65;0.47;;;;;;;33.45;19.63;97116.22;5092645;28;20383;-89
2021/05/16 05:05:30;;;;;;;0.47;0.40;;;;;;;33.38;20.18;97114.69;5091854;28;20137;-88
2021/05/16 05:07:56;;;;;;;0.50;0.50;;;;;;;33.19;20.58;97119.38;5093553;28;20028;-88
2021/05/16 05:10:22;;;;;;;0.40;0.40;;;;;;;33.13;20.86;97115.78;5092731;28;20032;-89
2021/05/16 05:12:48;;;;;;;0.88;0.80;;;;;;;33.01;20.67;97119.94;5091977;28;20064;-89
2021/05/16 05:15:14;;;;;;;0.40;0.40;;;;;;;33.14;21.05;97117.31;5085838;28;20381;-87
2021/05/16 05:17:41;;;;;;;0.38;0.38;;;;;;;33.25;20.80;97125.09;5085222;28;20040;-86
2021/05/16 05:20:09;;;;;;;0.70;0.60;;;;;;;33.05;20.50;97123.28;5087191;28;20058;-85
2021/05/16 05:22:35;;;;;;;0.55;0.40;;;;;;;33.02;20.17;97129.25;5087177;28;20491;-90
2021/05/16 05:25:02;;;;;;;0.85;0.50;;;;;;;32.96;20.58;97129.22;5077824;28;20028;-89
2021/05/16 05:27:28;;;;;;;0.55;0.40;;;;;;;32.97;20.41;97122.25;5086508;28;20039;-91
2021/05/16 05:29:54;;;;;;;0.38;0.35;;;;;;;32.64;21.47;97119.38;5085857;28;20164;-87
2021/05/16 05:32:20;;;;;;;1.58;0.30;;;;;;;32.29;20.98;97119.03;5087608;28;20040;-91
2021/05/16 05:34:47;;;;;;;0.35;0.35;;;;;;;32.62;20.67;97119.91;5082796;28;20487;-90
2021/05/16 05:37:13;;;;;;;0.45;0.30;;;;;;;32.04;21.99;97121.53;5081518;28;20122;-90
2021/05/16 05:39:39;;;;;;;0.85;0.50;;;;;;;32.34;22.10;97124.75;5089884;28;20035;-90
2021/05/16 05:42:05;;;;;;;0.32;0.32;;;;;;;32.78;21.89;97121.19;5087946;28;20036;-90
2021/05/16 05:44:31;;;;;;;1.67;0.60;;;;;;;32.88;21.44;97128.19;5089098;28;20036;-91
2021/05/16 05:46:58;;;;;;;0.25;0.20;;;;;;;33.50;21.46;97135.38;5085973;28;20035;-91
2021/05/16 05:49:24;;;;;;;0.40;0.40;;;;;;;32.60;21.06;97128.16;5089333;28;20043;-90
2021/05/16 05:51:50;;;;;;;0.57;0.40;;;;;;;32.51;21.42;97130.50;5081516;28;20047;-90
2021/05/16 05:54:16;;;;;;;0.43;0.30;;;;;;;32.86;21.37;97127.16;5086358;28;20074;-88
2021/05/16 05:56:42;;;;;;;0.47;0.40;;;;;;;33.26;21.02;97130.25;5084958;28;20040;-88
2021/05/16 05:59:09;;;;;;;0.38;0.30;;;;;;;33.77;20.55;97128.84;5090385;28;20017;-88
2021/05/16 06:01:35;;;;;;;0.70;0.50;;;;;;;34.00;20.49;97118.91;5089697;28;20156;-88
2021/05/16 06:04:01;;;;;;;0.40;0.40;;;;;;;33.60;20.87;97127.34;5086682;28;20023;-88
2021/05/16 06:06:27;;;;;;;1.25;0.60;;;;;;;33.48;20.76;97132.28;5080902;28;20036;-87
2021/05/16 06:08:53;;;;;;;0.70;0.55;;;;;;;33.18;21.05;97129.22;5082348;28;20032;-90
2021/05/16 06:11:20;;;;;;;0.88;0.50;;;;;;;33.51;21.10;97121.91;5084461;28;20054;-90
2021/05/16 06:13:46;;;;;;;0.40;0.20;;;;;;;34.17;21.10;97126.66;5084132;28;20036;-90
2021/05/16 06:16:12;;;;;;;0.25;0.25;;;;;;;34.53;20.24;97125.41;5078603;28;20035;-90
2021/05/16 06:18:38;;;;;;;0.50;0.32;;;;;;;34.58;19.76;97133.16;5075853;28;20522;-87
2021/05/16 06:21:04;;;;;;;0.68;0.28;;;;;;;34.83;19.63;97129.06;5078981;28;20488;-88
2021/05/16 06:23:45;;;;;;;0.85;0.30;;;;;;;34.70;19.80;97131.78;5079686;28;20028;-90
2021/05/16 06:26:11;;;;;;;0.30;0.30;;;;;;;34.85;19.35;97137.09;5082864;28;20132;-88
2021/05/16 06:28:37;;;;;;;0.22;0.20;;;;;;;35.23;19.35;97136.03;5080633;28;20499;-87
2021/05/16 06:31:03;;;;;;;1.40;0.30;;;;;;;35.53;18.77;97136.00;5087491;28;20039;-88
2021/05/16 06:33:29;;;;;;;0.52;0.20;;;;;;;35.60;18.85;97133.34;5081755;28;20054;-88
2021/05/16 06:35:55;;;;;;;1.08;0.28;;;;;;;35.54;18.89;97134.72;5081973;28;20040;-88
2021/05/16 06:38:21;;;;;;;0.40;0.30;;;;;;;34.98;19.24;97125.84;5082139;28;20040;-88
2021/05/16 06:40:47;;;;;;;0.50;0.30;;;;;;;34.60;20.21;97137.03;5082954;28;20116;-88
2021/05/16 06:43:15;;;;;;;0.20;0.20;;;;;;;35.02;19.92;97129.97;5088167;28;20520;-88
2021/05/16 06:45:41;;;;;;;0.30;0.30;;;;;;;35.01;19.03;97128.41;5087238;28;20024;-88
2021/05/16 06:48:13;;;;;;;0.30;0.20;;;;;;;34.85;20.24;97134.22;5086151;28;20035;-86
2021/05/16 06:50:39;;;;;;;0.28;0.13;;;;;;;34.86;20.27;97135.78;5084780;28;20052;-86
2021/05/16 06:53:05;;;;;;;0.20;0.20;;;;;;;35.18;19.90;97133.97;5087236;28;20537;-87
2021/05/16 06:55:31;;;;;;;0.30;0.20;;;;;;;34.84;19.07;97132.69;5086404;28;20042;-86
2021/05/16 06:58:00;;;;;;;0.30;0.30;;;;;;;35.07;20.39;97128.38;5089168;28;20079;-87
2021/05/16 07:00:30;;;;;;;0.30;0.30;;;;;;;35.29;19.82;97128.94;5084867;28;20029;-87
2021/05/16 07:02:56;;;;;;;0.98;0.40;;;;;;;35.52;19.94;97131.63;5090799;28;20411;-88
2021/05/16 07:05:22;;;;;;;0.68;0.65;;;;;;;35.66;19.34;97131.19;5087687;28;20499;-87
2021/05/16 07:07:48;;;;;;;0.47;0.28;;;;;;;35.52;19.48;97125.91;5080090;28;20036;-87
2021/05/16 07:10:15;;;;;;;0.30;0.20;;;;;;;35.68;19.95;97125.72;5087053;28;20511;-86
2021/05/16 07:12:41;;;;;;;0.90;0.43;;;;;;;35.92;19.39;97131.38;5089072;28;20025;-86
2021/05/16 07:15:12;;;;;;;0.20;0.20;;;;;;;36.12;19.13;97129.34;5095226;28;20126;-85
2021/05/16 07:17:38;;;;;;;0.10;0.10;;;;;;;36.53;18.61;97132.69;5088261;28;20036;-85
2021/05/16 07:20:05;;;;;;;0.20;0.20;;;;;;;36.58;18.63;97129.78;5094607;28;20032;-85
2021/05/16 07:22:31;;;;;;;0.28;0.25;;;;;;;36.81;18.43;97130.19;5095528;28;20047;-87
2021/05/16 07:24:57;;;;;;;0.90;0.22;;;;;;;36.96;17.98;97133.38;5087764;28;20032;-89
2021/05/16 07:27:23;;;;;;;0.20;0.20;;;;;;;36.84;18.83;97128.31;5093345;28;20051;-87
2021/05/16 07:29:49;;;;;;;0.47;0.30;;;;;;;36.91;18.00;97127.69;5091034;28;20379;-86
2021/05/16 07:32:16;;;;;;;0.30;0.30;;;;;;;36.27;18.44;97123.97;5084436;28;20042;-89
2021/05/16 07:34:42;;;;;;;0.20;0.20;;;;;;;36.11;19.08;97122.13;5091912;28;20392;-88
2021/05/16 07:37:08;;;;;;;0.20;0.13;;;;;;;35.99;19.19;97127.94;5092000;28;20044;-86
2021/05/16 07:39:35;;;;;;;0.25;0.25;;;;;;;36.02;19.02;97129.75;5085453;28;20028;-87
2021/05/16 07:42:01;;;;;;;0.82;0.20;;;;;;;36.15;18.96;97128.28;5092248;28;20052;-85
2021/05/16 07:44:27;;;;;;;0.30;0.25;;;;;;;36.31;19.13;97133.78;5094675;28;20032;-86
2021/05/16 07:46:53;;;;;;;0.32;0.20;;;;;;;36.22;18.89;97125.59;5090842;28;20028;-86
2021/05/16 07:49:21;;;;;;;0.10;0.10;;;;;;;35.30;18.92;97126.88;5089711;28;20039;-87
2021/05/16 07:51:47;;;;;;;0.40;0.30;;;;;;;35.39;19.24;97132.22;5093331;28;20032;-86
2021/05/16 07:54:13;;;;;;;0.43;0.30;;;;;;;35.57;18.61;97130.78;5090006;28;20045;-85
2021/05/16 07:56:39;;;;;;;0.73;0.22;;;;;;;35.06;19.13;97126.81;5092999;28;20028;-86
2021/05/16 07:59:05;;;;;;;0.93;0.30;;;;;;;34.63;20.13;97130.28;5091663;28;20085;-86
2021/05/16 08:01:32;;;;;;;0.22;0.20;;;;;;;34.52;20.90;97133.19;5085832;28;20506;-86
2021/05/16 08:03:58;;;;;;;0.20;0.20;;;;;;;34.73;19.43;97133.56;5094696;28;20078;-86
2021/05/16 08:06:24;;;;;;;0.25;0.20;;;;;;;34.60;20.28;97134.19;5095060;28;20050;-85
2021/05/16 08:08:51;;;;;;;0.60;0.47;;;;;;;34.70;19.94;97140.34;5089831;28;20042;-85
2021/05/16 08:11:17;;;;;;;0.45;0.20;;;;;;;35.00;19.86;97141.13;5079097;28;20032;-85
2021/05/16 08:13:43;;;;;;;0.80;0.40;;;;;;;34.74;20.02;97140.81;5091626;28;20154;-86
2021/05/16 08:16:09;;;;;;;5.38;0.68;;;;;;;35.25;19.31;97134.19;5085784;28;20032;-85
2021/05/16 08:18:35;;;;;;;0.30;0.30;;;;;;;35.24;19.11;97146.16;5084911;28;20101;-85
2021/05/16 08:21:02;;;;;;;0.40;0.20;;;;;;;34.66;19.26;97143.44;5085473;28;20048;-86
2021/05/16 08:23:28;;;;;;;0.20;0.20;;;;;;;34.29;19.96;97146.00;5080187;28;20056;-87
2021/05/16 08:25:54;;;;;;;0.20;0.20;;;;;;;34.57;20.11;97152.34;5079387;28;20032;-87
2021/05/16 08:28:20;;;;;;;0.20;0.20;;;;;;;34.79;19.58;97148.56;5082669;28;20038;-87
2021/05/16 08:30:46;;;;;;;0.25;0.20;;;;;;;35.10;19.07;97150.16;5086414;28;20036;-86
2021/05/16 08:33:12;;;;;;;0.32;0.30;;;;;;;34.93;19.77;97150.28;5081683;28;20119;-87
2021/05/16 08:35:38;;;;;;;1.95;0.20;;;;;;;35.13;18.63;97149.06;5086451;28;20095;-86
2021/05/16 08:38:04;;;;;;;0.40;0.20;;;;;;;34.93;19.25;97152.34;5081136;28;20115;-86
2021/05/16 08:40:30;;;;;;;0.30;0.20;;;;;;;35.06;19.39;97163.91;5083967;28;20032;-86
2021/05/16 08:42:59;;;;;;;0.52;0.17;;;;;;;35.37;19.15;97171.97;5086451;28;20032;-87
2021/05/16 08:45:25;;;;;;;2.20;0.40;;;;;;;35.45;18.82;97175.00;5085153;28;20094;-89
2021/05/16 08:47:51;;;;;;;0.57;0.30;;;;;;;34.63;20.14;97169.41;5084561;28;20060;-88
2021/05/16 08:50:18;;;;;;;0.95;0.30;;;;;;;34.70;20.02;97177.41;5082318;28;20522;-89
2021/05/16 08:52:44;;;;;;;0.60;0.30;;;;;;;34.99;19.91;97179.50;5090006;28;20032;-89
2021/05/16 08:55:12;;;;;;;0.40;0.20;;;;;;;35.17;19.30;97176.03;5086677;28;20032;-89
2021/05/16 08:57:39;;;;;;;0.25;0.20;;;;;;;34.99;19.95;97184.44;5091139;28;20028;-88
2021/05/16 09:00:28;;;;;;;0.43;0.30;;;;;;;34.34;20.33;97205.06;5085890;28;20036;-88
2021/05/16 09:03:05;;;;;;;0.20;0.20;;;;;;;33.14;21.53;97210.44;5083093;28;20109;-89
2021/05/16 09:05:42;;;;;;;0.30;0.25;;;;;;;33.55;21.07;97207.84;5084595;28;20064;-90
2021/05/16 09:08:21;;;;;;;1.48;0.28;;;;;;;31.84;24.17;97189.06;5078474;28;20032;-90
2021/05/16 09:10:58;;;;;;;0.57;0.17;;;;;;;31.76;23.99;97194.47;5083380;28;20052;-90
2021/05/16 09:13:43;;;;;;;1.10;0.20;;;;;;;32.15;23.90;97197.50;5080017;28;20161;-91
2021/05/16 09:16:13;;;;;;;0.30;0.15;;;;;;;32.60;23.31;97199.22;5090446;28;20518;-91
2021/05/16 09:18:41;;;;;;;0.10;0.03;;;;;;;33.29;22.44;97205.25;5092686;28;20114;-88
2021/05/16 09:21:33;;;;;;;0.13;0.10;;;;;;;33.49;22.46;97199.31;5092994;28;20062;-89
2021/05/16 09:24:02;;;;;;;0.20;0.13;;;;;;;32.92;23.33;97202.66;5087897;28;20040;-89
2021/05/16 09:26:50;;;;;;;0.20;0.20;;;;;;;33.28;22.34;97201.63;5090050;28;20372;-88
2021/05/16 09:29:22;;;;;;;0.55;0.20;;;;;;;33.44;22.64;97200.84;5089608;28;20028;-89
2021/05/16 09:31:50;;;;;;;0.30;0.20;;;;;;;33.49;22.68;97193.63;5091655;28;20073;-89
2021/05/16 09:34:17;;;;;;;0.40;0.20;;;;;;;33.86;21.67;97194.06;5088420;28;20032;-89
2021/05/16 09:36:47;;;;;;;0.52;0.20;;;;;;;33.98;21.04;97198.41;5086496;28;20097;-87
2021/05/16 09:39:34;;;;;;;0.20;0.20;;;;;;;34.31;21.09;97203.25;5086908;28;20061;-87
2021/05/16 09:42:15;;;;;;;0.20;0.17;;;;;;;34.61;20.59;97192.00;5084804;28;20028;-89
2021/05/16 09:44:42;;;;;;;0.38;0.20;;;;;;;34.45;20.80;97202.13;5084322;28;20034;-89
2021/05/16 09:47:28;;;;;;;0.55;0.10;;;;;;;34.69;21.02;97204.38;5086431;28;20067;-89
2021/05/16 09:50:01;;;;;;;0.20;0.13;;;;;;;35.01;20.40;97207.53;5089211;28;20024;-90
2021/05/16 09:52:34;;;;;;;0.13;0.10;;;;;;;35.07;20.22;97202.59;5082955;28;20143;-88
2021/05/16 09:55:03;;;;;;;0.55;0.20;;;;;;;35.14;20.30;97199.94;5083605;28;20016;-89
2021/05/16 09:57:36;;;;;;;0.38;0.17;;;;;;;35.13;20.43;97200.44;5081570;28;20468;-90
2021/05/16 10:00:11;;;;;;;0.20;0.20;;;;;;;35.00;20.21;97197.41;5087275;28;20024;-91
2021/05/16 10:02:38;;;;;;;0.10;0.10;;;;;;;34.99;20.57;97196.63;5091578;28;20032;-91
2021/05/16 10:05:07;;;;;;;0.65;0.10;;;;;;;34.68;20.71;97195.03;5092582;28;20036;-89
2021/05/16 10:07:34;;;;;;;0.68;0.20;;;;;;;34.60;20.95;97198.97;5087558;28;20032;-92
2021/05/16 10:10:00;;;;;;;0.20;0.20;;;;;;;34.55;20.67;97194.88;5090480;28;20078;-90
2021/05/16 10:12:27;;;;;;;0.30;0.10;;;;;;;34.91;20.77;97206.31;5090811;28;20054;-90
2021/05/16 10:15:12;;;;;;;0.32;0.30;;;;;;;35.37;21.25;97206.22;5082618;28;20446;-90
2021/05/16 10:17:45;;;;;;;2.25;0.45;;;;;;;35.33;20.95;97203.66;5081286;28;20047;-90
2021/05/16 10:20:13;;;;;;;0.65;0.20;;;;;;;35.63;21.05;97205.75;5084271;28;20031;-90
2021/05/16 10:22:40;;;;;;;0.10;0.10;;;;;;;35.88;19.90;97205.22;5086639;28;20457;-90
2021/05/16 10:25:11;;;;;;;0.55;0.10;;;;;;;35.96;21.31;97199.69;5095431;28;20138;-89
2021/05/16 10:27:45;;;;;;;0.30;0.22;;;;;;;36.17;20.56;97203.63;5084534;28;20043;-90
2021/05/16 10:30:15;;;;;;;1.38;0.57;;;;;;;36.50;19.52;97202.44;5086863;28;20093;-89
2021/05/16 10:32:49;;;;;;;0.87;0.40;;;;;;;36.59;20.07;97199.97;5079677;28;20115;-89
2021/05/16 10:35:15;;;;;;;1.15;0.40;;;;;;;36.89;20.26;97201.88;5084588;28;20483;-89
2021/05/16 10:37:57;;;;;;;0.45;0.30;;;;;;;37.08;19.79;97203.44;5082436;28;20057;-88
2021/05/16 10:40:31;;;;;;;0.93;0.65;;;;;;;37.37;18.87;97205.31;5084342;28;20399;-88
2021/05/16 10:43:25;;;;;;;0.30;0.20;;;;;;;37.43;18.74;97201.59;5091951;28;20048;-91
2021/05/16 10:45:51;;;;;;;0.22;0.10;;;;;;;37.47;19.00;97196.28;5082258;28;20064;-91
2021/05/16 10:48:20;;;;;;;0.60;0.20;;;;;;;37.53;18.41;97199.84;5077919;28;20025;-89
2021/05/16 10:50:59;;;;;;;0.20;0.15;;;;;;;37.49;18.87;97193.66;5078772;28;20029;-89
2021/05/16 10:53:34;;;;;;;0.00;0.00;;;;;;;37.56;18.75;97190.13;5084260;28;20502;-89
2021/05/16 10:56:08;;;;;;;0.10;0.10;;;;;;;37.59;17.61;97195.56;5075580;28;20024;-89
2021/05/16 10:58:37;;;;;;;0.20;0.10;;;;;;;37.57;17.56;97194.56;5087334;28;20492;-89
2021/05/16 11:01:23;;;;;;;0.05;0.05;;;;;;;37.49;17.43;97188.69;5081902;28;20025;-89
2021/05/16 11:03:58;;;;;;;0.40;0.20;;;;;;;37.46;18.25;97195.50;5084611;28;20071;-89
2021/05/16 11:06:30;;;;;;;0.25;0.10;;;;;;;37.45;18.25;97194.00;5084943;28;20032;-89
2021/05/16 11:08:56;;;;;;;0.20;0.10;;;;;;;37.54;18.78;97187.84;5086403;28;20094;-89
2021/05/16 11:11:35;;;;;;;0.00;0.00;;;;;;;37.43;18.37;97193.00;5086143;28;20472;-90
2021/05/16 11:14:22;;;;;;;0.05;0.05;;;;;;;37.53;18.91;97191.25;5082710;28;20027;-89
2021/05/16 11:17:01;;;;;;;0.20;0.10;;;;;;;37.48;18.08;97195.75;5087569;28;20496;-89
2021/05/16 11:19:30;;;;;;;0.28;0.15;;;;;;;37.33;19.04;97190.50;5086386;28;20035;-89
2021/05/16 11:21:57;;;;;;;0.10;0.10;;;;;;;37.48;19.58;97190.03;5083920;28;20047;-89
2021/05/16 11:24:41;;;;;;;0.00;0.00;;;;;;;37.48;17.83;97183.53;5085409;28;20037;-90
2021/05/16 11:27:22;;;;;;;0.20;0.10;;;;;;;37.19;18.06;97185.28;5079623;28;20039;-89
2021/05/16 11:29:57;;;;;;;0.30;0.30;;;;;;;36.88;18.47;97178.19;5080456;28;20044;-90
2021/05/16 11:32:29;;;;;;;0.30;0.30;;;;;;;36.71;18.41;97180.56;5082716;28;20039;-90
2021/05/16 11:35:05;;;;;;;0.20;0.20;;;;;;;36.57;19.89;97176.84;5083391;28;20086;-89
2021/05/16 11:37:31;;;;;;;0.52;0.20;;;;;;;36.80;19.35;97171.59;5083855;28;20029;-88
2021/05/16 11:40:20;;;;;;;0.55;0.20;;;;;;;36.86;18.75;97177.97;5089827;28;20044;-88